Time;durP1;ratioP1;P1;durP2;ratioP2;P2;SDS_P1;SDS_P2;PMS_P1;PMS_P2;Temp;Humidity;BMP_temperature;BMP_pressure;BME280_temperature;BME280_humidity;BME280_pressure;Samples;Min_cycle;Max_cycle;Signal;HPM_P1;HPM_P2
2023/12/16 00:02:03;;;;;;;3.80;3.60;;;19.00;43.10;;;;;;5015966;28;20540;-83
2023/12/16 00:04:28;;;;;;;3.10;2.80;;;19.00;43.10;;;;;;5016736;28;20483;-83
2023/12/16 00:06:54;;;;;;;2.73;2.53;;;19.00;43.10;;;;;;5015139;28;20884;-85
2023/12/16 00:09:19;;;;;;;3.00;2.80;;;19.00;43.10;;;;;;5001321;28;20229;-82
2023/12/16 00:11:45;;;;;;;2.90;2.70;;;19.00;43.90;;;;;;5018395;28;20227;-84
2023/12/16 00:14:10;;;;;;;3.17;2.97;;;19.00;43.10;;;;;;5014748;28;20226;-84
2023/12/16 00:16:36;;;;;;;3.63;3.30;;;19.00;43.10;;;;;;5016311;28;20983;-83
2023/12/16 00:19:02;;;;;;;2.73;2.53;;;19.00;43.10;;;;;;5012572;28;20834;-82
2023/12/16 00:21:27;;;;;;;3.47;3.20;;;19.00;43.10;;;;;;5012738;28;20738;-84
2023/12/16 00:23:53;;;;;;;3.70;3.50;;;19.00;43.10;;;;;;5011772;28;20218;-82
2023/12/16 00:26:18;;;;;;;3.03;2.83;;;19.00;43.10;;;;;;5014641;28;21002;-83
2023/12/16 00:28:44;;;;;;;3.17;2.70;;;19.00;43.20;;;;;;5016704;28;20310;-82
2023/12/16 00:31:09;;;;;;;3.33;3.03;;;19.00;43.10;;;;;;5016654;28;20230;-83
2023/12/16 00:33:35;;;;;;;3.33;3.03;;;19.00;43.10;;;;;;5016973;28;20317;-82
2023/12/16 00:36:01;;;;;;;2.70;2.50;;;19.00;44.00;;;;;;5015707;28;20215;-82
2023/12/16 00:38:26;;;;;;;3.23;2.97;;;19.00;43.20;;;;;;5011858;28;20242;-84
2023/12/16 00:40:51;;;;;;;3.30;3.00;;;19.00;43.20;;;;;;5012622;28;20277;-82
2023/12/16 00:43:17;;;;;;;3.20;3.00;;;19.00;43.20;;;;;;5015907;28;20637;-83
2023/12/16 00:45:42;;;;;;;2.90;2.70;;;19.00;43.10;;;;;;5017311;28;20243;-84
2023/12/16 00:48:08;;;;;;;3.40;3.20;;;19.00;43.20;;;;;;5016712;28;20262;-83
2023/12/16 00:50:38;;;;;;;3.50;2.70;;;19.00;43.20;;;;;;5011986;28;20249;-83
2023/12/16 00:53:03;;;;;;;3.63;3.33;;;19.00;43.20;;;;;;5003093;28;20229;-83
2023/12/16 00:55:29;;;;;;;2.70;2.50;;;19.00;43.20;;;;;;5010259;28;20445;-82
2023/12/16 00:57:54;;;;;;;2.77;2.57;;;19.00;43.20;;;;;;5014879;28;20239;-82
2023/12/16 01:00:20;;;;;;;2.97;2.77;;;19.00;43.20;;;;;;5015554;28;20250;-83
2023/12/16 01:02:45;;;;;;;3.20;2.77;;;19.00;43.10;;;;;;4998209;28;20223;-83
2023/12/16 01:05:11;;;;;;;3.60;3.30;;;19.00;43.20;;;;;;5010981;28;20714;-84
2023/12/16 01:07:36;;;;;;;2.83;2.63;;;19.00;43.20;;;;;;5013453;28;20687;-84
2023/12/16 01:10:02;;;;;;;2.70;2.50;;;19.00;43.20;;;;;;5012109;28;20230;-83
2023/12/16 01:12:28;;;;;;;2.53;2.43;;;19.00;43.20;;;;;;5012788;28;20683;-84
2023/12/16 01:14:53;;;;;;;2.97;2.77;;;19.00;43.20;;;;;;5011525;28;20219;-83
2023/12/16 01:17:19;;;;;;;2.93;2.73;;;19.00;43.20;;;;;;5011497;28;20635;-83
2023/12/16 01:19:44;;;;;;;3.37;3.07;;;19.00;43.20;;;;;;4998534;28;20246;-83
2023/12/16 01:22:10;;;;;;;3.20;2.93;;;19.00;43.20;;;;;;5011563;28;20223;-83
2023/12/16 01:24:37;;;;;;;3.13;2.80;;;19.00;43.20;;;;;;5014270;28;20227;-84
2023/12/16 01:27:04;;;;;;;2.50;2.20;;;19.00;43.20;;;;;;5013939;28;20226;-83
2023/12/16 01:29:29;;;;;;;2.93;2.83;;;19.00;43.20;;;;;;5014869;28;20514;-83
2023/12/16 01:31:55;;;;;;;2.90;2.70;;;19.00;43.20;;;;;;5011580;28;20434;-83
2023/12/16 01:34:20;;;;;;;3.03;2.80;;;19.00;43.20;;;;;;5011946;28;20277;-84
2023/12/16 01:36:46;;;;;;;3.13;2.90;;;19.00;43.20;;;;;;5011309;28;20245;-84
2023/12/16 01:39:12;;;;;;;2.80;2.60;;;19.00;43.20;;;;;;4995564;28;20313;-82
2023/12/16 01:41:38;;;;;;;3.30;2.73;;;19.00;43.20;;;;;;5013259;28;20286;-82
2023/12/16 01:44:03;;;;;;;3.13;2.83;;;19.00;43.20;;;;;;5012799;28;21007;-83
2023/12/16 01:46:30;;;;;;;2.77;2.43;;;19.00;43.30;;;;;;5012770;28;20296;-83
2023/12/16 01:48:56;;;;;;;2.90;2.70;;;19.00;43.20;;;;;;5011795;28;20226;-82
2023/12/16 01:51:21;;;;;;;2.57;2.37;;;19.00;43.20;;;;;;5012392;28;21099;-82
2023/12/16 01:53:47;;;;;;;2.80;2.60;;;19.00;43.20;;;;;;5015194;28;20249;-82
2023/12/16 01:56:13;;;;;;;3.07;2.87;;;19.00;43.20;;;;;;5011252;28;20341;-85
2023/12/16 01:58:39;;;;;;;3.07;2.87;;;19.00;43.20;;;;;;4997994;28;20262;-84
2023/12/16 02:01:05;;;;;;;2.57;2.47;;;19.00;43.20;;;;;;5014311;28;20269;-83
2023/12/16 02:03:31;;;;;;;3.07;2.30;;;19.00;43.20;;;;;;5011968;28;20825;-82
2023/12/16 02:06:00;;;;;;;2.47;2.20;;;19.00;43.30;;;;;;5011912;28;20227;-84
2023/12/16 02:08:26;;;;;;;2.80;2.50;;;18.90;43.10;;;;;;5013730;28;20229;-82
2023/12/16 02:10:51;;;;;;;2.40;2.30;;;18.90;43.20;;;;;;5009675;28;20452;-83
2023/12/16 02:13:18;;;;;;;2.73;2.53;;;19.00;43.20;;;;;;5009235;28;20227;-82
2023/12/16 02:15:44;;;;;;;2.90;2.70;;;18.90;43.90;;;;;;5025204;28;20683;-83
2023/12/16 02:18:11;;;;;;;3.03;2.40;;;18.90;43.10;;;;;;5010876;28;20476;-83
2023/12/16 02:20:37;;;;;;;2.47;2.30;;;18.90;43.10;;;;;;5012274;28;20261;-84
2023/12/16 02:23:03;;;;;;;2.67;2.47;;;18.90;43.20;;;;;;5012665;28;20964;-83
2023/12/16 02:25:28;;;;;;;2.67;2.47;;;18.90;43.20;;;;;;5012783;28;20236;-83
2023/12/16 02:27:54;;;;;;;3.10;2.90;;;18.90;43.20;;;;;;5008956;28;20230;-83
2023/12/16 02:30:20;;;;;;;2.37;2.17;;;18.90;43.10;;;;;;5020080;28;20222;-83
2023/12/16 02:32:46;;;;;;;2.80;2.60;;;18.90;43.10;;;;;;5011709;28;20230;-83
2023/12/16 02:35:12;;;;;;;2.90;2.70;;;18.90;43.20;;;;;;5014260;28;20536;-82
2023/12/16 02:37:37;;;;;;;2.63;2.43;;;18.90;43.20;;;;;;5010506;28;21003;-82
2023/12/16 02:40:03;;;;;;;3.00;2.80;;;18.90;43.20;;;;;;5008375;28;20226;-83
2023/12/16 02:42:30;;;;;;;2.53;2.37;;;18.90;43.10;;;;;;5011189;28;20227;-82
2023/12/16 02:44:55;;;;;;;2.87;2.63;;;18.90;43.10;;;;;;5013285;28;20462;-83
2023/12/16 02:47:21;;;;;;;3.10;2.90;;;18.90;43.20;;;;;;5012440;28;20447;-84
2023/12/16 02:49:46;;;;;;;2.90;2.60;;;18.90;43.20;;;;;;5009897;28;20241;-83
2023/12/16 02:52:12;;;;;;;2.13;2.03;;;18.90;43.20;;;;;;5013564;28;20214;-83
2023/12/16 02:54:38;;;;;;;2.90;2.40;;;18.90;43.20;;;;;;5011188;28;20234;-85
2023/12/16 02:57:03;;;;;;;2.23;2.10;;;18.90;44.00;;;;;;5017237;28;20280;-82
2023/12/16 02:59:29;;;;;;;2.37;2.27;;;18.90;43.20;;;;;;5014243;28;20476;-83
2023/12/16 03:01:55;;;;;;;2.50;2.40;;;18.90;43.20;;;;;;5014000;28;20215;-84
2023/12/16 03:04:20;;;;;;;2.80;2.60;;;18.90;43.20;;;;;;5012440;28;20250;-83
2023/12/16 03:06:46;;;;;;;2.20;2.10;;;18.90;43.20;;;;;;5010590;28;20231;-83
2023/12/16 03:09:12;;;;;;;3.40;2.70;;;18.90;43.20;;;;;;5010538;28;20214;-82
2023/12/16 03:11:38;;;;;;;3.30;2.37;;;18.90;43.20;;;;;;5010743;28;20230;-84
2023/12/16 03:14:04;;;;;;;2.93;2.73;;;18.90;43.20;;;;;;5010156;28;20230;-84
2023/12/16 03:16:32;;;;;;;2.27;2.17;;;18.90;43.30;;;;;;5008460;28;20538;-82
2023/12/16 03:18:57;;;;;;;2.63;2.43;;;18.90;44.00;;;;;;5011656;28;20234;-82
2023/12/16 03:21:23;;;;;;;2.80;2.60;;;18.90;43.30;;;;;;5010975;28;20486;-83
2023/12/16 03:23:48;;;;;;;2.40;2.23;;;18.90;43.30;;;;;;5014964;28;20231;-83
2023/12/16 03:26:14;;;;;;;2.60;2.40;;;18.90;43.30;;;;;;5015762;28;20226;-83
2023/12/16 03:28:39;;;;;;;2.03;1.93;;;18.90;43.30;;;;;;5018584;28;20218;-83
2023/12/16 03:31:05;;;;;;;2.63;2.43;;;18.90;43.20;;;;;;5018305;28;20229;-84
2023/12/16 03:33:30;;;;;;;3.03;2.83;;;18.90;43.30;;;;;;5008823;28;20309;-84
2023/12/16 03:35:56;;;;;;;2.90;2.70;;;18.90;43.20;;;;;;5016340;28;20223;-83
2023/12/16 03:38:22;;;;;;;2.50;2.30;;;18.90;43.30;;;;;;5013415;28;20227;-83
2023/12/16 03:40:47;;;;;;;2.70;2.50;;;18.90;43.20;;;;;;5015986;28;20230;-83
2023/12/16 03:43:14;;;;;;;2.60;2.40;;;18.90;43.30;;;;;;5013665;28;20277;-83
2023/12/16 03:45:39;;;;;;;2.20;2.00;;;18.90;43.30;;;;;;5015445;28;20623;-84
2023/12/16 03:48:05;;;;;;;2.50;2.30;;;18.90;43.30;;;;;;5017698;28;20434;-83
2023/12/16 03:50:31;;;;;;;2.33;2.13;;;18.90;43.30;;;;;;5016638;28;20266;-84
2023/12/16 03:52:56;;;;;;;2.33;2.13;;;18.90;43.30;;;;;;5011975;28;20215;-84
2023/12/16 03:55:22;;;;;;;2.50;2.30;;;18.90;43.30;;;;;;5015805;28;20242;-83
2023/12/16 03:57:47;;;;;;;2.47;2.37;;;18.90;43.30;;;;;;5015186;28;20230;-84
2023/12/16 04:00:13;;;;;;;2.53;2.33;;;18.90;43.40;;;;;;5015164;28;20250;-83
2023/12/16 04:02:39;;;;;;;1.90;1.80;;;18.90;43.40;;;;;;5015458;28;20231;-84
2023/12/16 04:05:05;;;;;;;2.77;2.57;;;18.90;43.40;;;;;;5017047;28;20224;-82
2023/12/16 04:07:31;;;;;;;2.40;2.30;;;18.90;43.30;;;;;;5014969;28;20232;-84
2023/12/16 04:09:56;;;;;;;2.60;2.40;;;18.90;43.30;;;;;;5015842;28;20426;-84
2023/12/16 04:12:22;;;;;;;2.60;2.40;;;18.90;43.40;;;;;;5013063;28;20237;-83
2023/12/16 04:14:47;;;;;;;2.23;2.13;;;18.90;43.30;;;;;;5015070;28;20223;-83
2023/12/16 04:17:13;;;;;;;2.10;2.00;;;18.90;43.30;;;;;;5011585;28;20225;-83
2023/12/16 04:19:48;;;;;;;2.00;1.90;;;18.90;43.50;;;;;;5015638;28;20261;-83
2023/12/16 04:22:13;;;;;;;2.20;2.00;;;18.90;43.50;;;;;;5010810;28;20230;-84
2023/12/16 04:24:39;;;;;;;2.43;2.23;;;18.90;43.50;;;;;;5012595;28;20449;-84
2023/12/16 04:27:04;;;;;;;2.13;2.03;;;18.90;43.50;;;;;;5012572;28;20234;-82
2023/12/16 04:29:30;;;;;;;2.67;2.47;;;18.90;43.30;;;;;;5016033;28;20237;-83
2023/12/16 04:31:55;;;;;;;3.03;2.80;;;18.90;43.50;;;;;;5009938;28;20298;-84
2023/12/16 04:34:21;;;;;;;2.00;1.90;;;18.90;43.50;;;;;;5012254;28;20225;-83
2023/12/16 04:36:46;;;;;;;2.90;2.23;;;18.90;43.30;;;;;;5011330;28;21226;-83
2023/12/16 04:39:12;;;;;;;2.57;2.37;;;18.90;43.40;;;;;;5010295;28;20987;-83
2023/12/16 04:41:38;;;;;;;2.60;2.40;;;18.90;43.50;;;;;;5014202;28;20218;-83
2023/12/16 04:44:04;;;;;;;2.43;2.27;;;18.90;43.50;;;;;;5025721;28;20448;-84
2023/12/16 04:46:30;;;;;;;2.50;2.30;;;18.90;43.40;;;;;;5008736;28;21245;-83
2023/12/16 04:48:55;;;;;;;2.10;1.90;;;18.90;43.40;;;;;;5013812;28;20729;-83
2023/12/16 04:51:21;;;;;;;2.57;2.37;;;18.90;43.40;;;;;;5011623;28;20223;-84
2023/12/16 04:53:46;;;;;;;1.97;1.87;;;18.90;43.30;;;;;;5010996;28;20231;-83
2023/12/16 04:56:12;;;;;;;2.40;2.20;;;18.90;43.30;;;;;;5028036;28;20220;-83
2023/12/16 04:58:37;;;;;;;2.07;1.97;;;18.90;43.30;;;;;;5018168;28;20253;-83
2023/12/16 05:01:03;;;;;;;2.30;2.10;;;18.90;43.20;;;;;;5012063;28;20242;-82
2023/12/16 05:03:33;;;;;;;2.67;2.47;;;18.90;43.30;;;;;;5014772;28;24009;-82
2023/12/16 05:05:59;;;;;;;2.27;2.07;;;18.90;43.20;;;;;;5029155;28;20250;-83
2023/12/16 05:08:24;;;;;;;2.10;1.90;;;18.90;43.30;;;;;;5009560;28;21385;-85
2023/12/16 05:10:50;;;;;;;2.13;2.00;;;18.90;43.30;;;;;;5013681;28;20223;-83
2023/12/16 05:13:15;;;;;;;1.90;1.80;;;18.90;43.20;;;;;;5011090;28;20207;-83
2023/12/16 05:15:41;;;;;;;2.00;1.90;;;18.90;43.20;;;;;;5012467;28;20225;-84
2023/12/16 05:18:07;;;;;;;2.03;1.93;;;18.90;43.20;;;;;;5014881;28;20253;-84
2023/12/16 05:20:34;;;;;;;2.20;1.90;;;18.90;43.20;;;;;;5012591;28;20230;-85
2023/12/16 05:23:02;;;;;;;3.60;2.10;;;18.90;43.20;;;;;;5007887;28;20339;-84
2023/12/16 05:25:28;;;;;;;2.33;2.00;;;18.90;43.20;;;;;;5014404;28;20460;-83
2023/12/16 05:27:54;;;;;;;2.60;2.03;;;19.00;43.30;;;;;;5014400;28;20449;-83
2023/12/16 05:30:20;;;;;;;2.03;1.93;;;19.00;43.20;;;;;;5011524;28;20470;-83
2023/12/16 05:32:45;;;;;;;2.13;1.93;;;19.00;43.20;;;;;;5006733;28;20231;-83
2023/12/16 05:35:11;;;;;;;1.70;1.60;;;19.00;43.30;;;;;;5014505;28;20296;-83
2023/12/16 05:37:36;;;;;;;1.60;1.50;;;19.00;43.20;;;;;;5011812;28;20218;-83
2023/12/16 05:40:03;;;;;;;2.70;2.00;;;19.00;43.20;;;;;;5014913;28;20234;-83
2023/12/16 05:42:29;;;;;;;2.00;1.90;;;19.00;43.30;;;;;;5013910;28;20702;-83
2023/12/16 05:44:54;;;;;;;2.00;1.87;;;19.00;43.20;;;;;;5011675;28;20467;-83
2023/12/16 05:47:20;;;;;;;1.73;1.60;;;19.00;43.30;;;;;;5011469;28;20230;-83
2023/12/16 05:49:45;;;;;;;1.80;1.70;;;19.00;43.30;;;;;;5013714;28;20238;-84
2023/12/16 05:52:11;;;;;;;2.17;2.07;;;19.00;43.20;;;;;;5009022;28;20219;-83
2023/12/16 05:54:37;;;;;;;2.30;1.90;;;19.00;43.20;;;;;;5008060;28;20639;-82
2023/12/16 05:57:03;;;;;;;2.30;2.10;;;19.00;43.20;;;;;;5003759;28;20460;-82
2023/12/16 05:59:28;;;;;;;2.80;1.60;;;19.00;43.20;;;;;;5011467;28;21366;-83
2023/12/16 06:01:54;;;;;;;2.10;2.00;;;19.00;43.20;;;;;;5009190;28;20226;-83
2023/12/16 06:04:20;;;;;;;2.03;1.80;;;19.00;43.30;;;;;;5017814;28;20225;-83
2023/12/16 06:06:47;;;;;;;2.27;2.07;;;19.00;43.20;;;;;;5016738;28;20890;-82
2023/12/16 06:09:12;;;;;;;1.80;1.70;;;19.00;43.20;;;;;;5017830;28;20310;-83
2023/12/16 06:11:38;;;;;;;1.80;1.70;;;19.00;43.20;;;;;;5011536;28;20485;-83
2023/12/16 06:14:03;;;;;;;2.03;1.90;;;19.00;43.20;;;;;;5016093;28;20261;-83
2023/12/16 06:16:29;;;;;;;2.53;1.67;;;19.00;43.10;;;;;;5017356;28;20234;-83
2023/12/16 06:18:55;;;;;;;1.83;1.67;;;19.00;43.20;;;;;;5014372;28;20372;-83
2023/12/16 06:21:20;;;;;;;2.07;1.90;;;19.00;43.20;;;;;;5015944;28;20218;-82
2023/12/16 06:23:46;;;;;;;1.80;1.70;;;19.00;43.20;;;;;;5013863;28;20242;-82
2023/12/16 06:26:11;;;;;;;1.70;1.60;;;19.00;43.20;;;;;;5014995;28;20289;-83
2023/12/16 06:28:37;;;;;;;2.53;1.50;;;19.00;43.20;;;;;;5011562;28;20227;-82
2023/12/16 06:31:02;;;;;;;1.80;1.70;;;19.00;43.20;;;;;;5017135;28;20769;-83
2023/12/16 06:33:28;;;;;;;1.93;1.83;;;19.00;43.20;;;;;;5016687;28;20631;-83
2023/12/16 06:35:54;;;;;;;1.97;1.87;;;19.00;43.20;;;;;;5020073;28;20223;-83
2023/12/16 06:38:19;;;;;;;1.87;1.77;;;19.00;43.10;;;;;;5013840;28;20236;-82
2023/12/16 06:40:45;;;;;;;3.50;1.60;;;19.00;43.10;;;;;;5017654;28;20686;-83
2023/12/16 06:43:10;;;;;;;1.90;1.80;;;19.00;43.10;;;;;;5020692;28;20219;-84
2023/12/16 06:45:38;;;;;;;2.17;1.70;;;19.00;43.20;;;;;;5020889;28;20319;-83
2023/12/16 06:48:04;;;;;;;2.07;1.87;;;19.00;43.10;;;;;;5012798;28;20246;-83
2023/12/16 06:50:29;;;;;;;1.80;1.70;;;19.00;43.10;;;;;;5014400;28;23323;-83
2023/12/16 06:52:55;;;;;;;1.97;1.87;;;19.00;43.10;;;;;;5020609;28;20467;-83
2023/12/16 06:55:21;;;;;;;1.87;1.63;;;19.00;43.10;;;;;;5020173;28;20790;-83
2023/12/16 06:57:46;;;;;;;2.33;1.50;;;19.00;43.10;;;;;;5020264;28;20211;-84
2023/12/16 07:00:12;;;;;;;2.43;1.67;;;19.00;43.10;;;;;;5021510;28;20694;-82
2023/12/16 07:02:41;;;;;;;1.60;1.50;;;19.00;43.10;;;;;;5020875;28;20253;-82
2023/12/16 07:05:10;;;;;;;2.17;2.07;;;19.00;43.10;;;;;;5017401;28;20418;-82
2023/12/16 07:07:35;;;;;;;1.77;1.67;;;19.00;43.10;;;;;;5013882;28;20431;-82
2023/12/16 07:10:01;;;;;;;1.70;1.60;;;19.00;43.10;;;;;;5019973;28;20445;-83
2023/12/16 07:12:27;;;;;;;2.40;1.73;;;19.00;43.10;;;;;;5015194;28;20314;-83
2023/12/16 07:14:52;;;;;;;1.87;1.77;;;19.00;43.10;;;;;;5016103;28;20297;-82
2023/12/16 07:17:18;;;;;;;3.23;3.03;;;19.00;43.10;;;;;;5008348;28;20231;-83
2023/12/16 07:19:44;;;;;;;1.80;1.70;;;19.00;43.00;;;;;;5021635;28;20230;-83
2023/12/16 07:22:09;;;;;;;2.10;2.00;;;19.00;43.00;;;;;;5019373;28;20433;-84
2023/12/16 07:24:35;;;;;;;1.90;1.80;;;19.00;43.00;;;;;;5025785;28;20257;-82
2023/12/16 07:27:01;;;;;;;1.60;1.50;;;19.00;43.00;;;;;;5016062;28;20300;-83
2023/12/16 07:29:26;;;;;;;1.60;1.50;;;19.00;43.00;;;;;;5017628;28;20230;-83
2023/12/16 07:31:52;;;;;;;2.13;2.00;;;19.00;43.00;;;;;;5012120;28;20766;-85
2023/12/16 07:34:17;;;;;;;2.00;1.80;;;19.00;43.00;;;;;;5013124;28;20753;-84
2023/12/16 07:36:44;;;;;;;2.33;1.50;;;19.00;43.00;;;;;;5015357;28;20707;-85
2023/12/16 07:39:09;;;;;;;1.70;1.60;;;19.00;43.00;;;;;;5015181;28;20243;-84
2023/12/16 07:41:35;;;;;;;1.70;1.60;;;19.00;43.00;;;;;;5020813;28;20947;-83
2023/12/16 07:44:01;;;;;;;2.10;1.63;;;19.00;43.00;;;;;;5013387;28;20231;-83
2023/12/16 07:46:27;;;;;;;1.57;1.47;;;19.00;42.90;;;;;;5008341;28;20441;-86
2023/12/16 07:48:55;;;;;;;1.70;1.60;;;19.00;43.00;;;;;;5001574;28;20442;-84
2023/12/16 07:51:25;;;;;;;1.60;1.40;;;19.00;42.90;;;;;;5002002;28;20223;-84
2023/12/16 07:53:50;;;;;;;6.43;2.47;;;19.00;42.90;;;;;;5017677;28;20430;-84
2023/12/16 07:56:23;;;;;;;1.73;1.63;;;19.00;43.00;;;;;;5004977;28;20444;-87
2023/12/16 07:58:50;;;;;;;2.20;1.70;;;19.00;43.00;;;;;;5017151;28;20239;-84
2023/12/16 08:01:16;;;;;;;1.97;1.87;;;19.00;42.90;;;;;;5005984;28;20472;-84
2023/12/16 08:03:42;;;;;;;1.90;1.80;;;19.00;42.90;;;;;;5020460;28;20447;-83
2023/12/16 08:06:09;;;;;;;1.87;1.60;;;19.00;43.00;;;;;;5010778;28;21415;-85
2023/12/16 08:08:36;;;;;;;1.83;1.60;;;19.00;43.00;;;;;;5020471;28;20218;-86
2023/12/16 08:11:01;;;;;;;1.90;1.80;;;19.00;43.00;;;;;;5035146;28;20789;-84
2023/12/16 08:13:27;;;;;;;4.03;1.80;;;19.00;42.90;;;;;;5015157;28;20435;-85
2023/12/16 08:15:53;;;;;;;1.73;1.63;;;19.00;43.00;;;;;;5034783;28;20235;-88
2023/12/16 08:18:18;;;;;;;1.70;1.60;;;19.00;43.00;;;;;;5018731;28;20281;-86
2023/12/16 08:20:44;;;;;;;2.03;1.70;;;19.00;43.00;;;;;;5009162;28;20226;-87
2023/12/16 08:23:09;;;;;;;1.37;1.27;;;19.00;43.00;;;;;;5006328;28;20238;-85
2023/12/16 08:25:35;;;;;;;1.63;1.50;;;19.00;43.00;;;;;;5027647;28;20218;-89
2023/12/16 08:28:01;;;;;;;1.67;1.57;;;19.00;43.00;;;;;;5022590;28;20227;-87
2023/12/16 08:30:27;;;;;;;1.70;1.60;;;19.00;43.00;;;;;;5018385;28;20223;-88
2023/12/16 08:32:53;;;;;;;1.70;1.60;;;19.00;43.00;;;;;;5023109;28;20806;-90
2023/12/16 08:35:18;;;;;;;1.60;1.50;;;19.00;43.00;;;;;;5017184;28;20227;-91
2023/12/16 08:37:44;;;;;;;1.57;1.47;;;19.00;43.00;;;;;;5021684;28;20584;-88
2023/12/16 08:40:10;;;;;;;2.07;1.60;;;19.00;43.00;;;;;;5020229;28;20219;-89
2023/12/16 08:42:36;;;;;;;2.23;2.00;;;19.00;43.00;;;;;;5018174;28;20260;-87
2023/12/16 08:45:02;;;;;;;2.00;1.67;;;19.00;43.00;;;;;;5020151;28;20530;-88
2023/12/16 08:47:28;;;;;;;1.60;1.50;;;19.00;43.00;;;;;;5017105;28;20242;-88
2023/12/16 08:49:55;;;;;;;2.07;1.90;;;19.00;43.00;;;;;;5014101;28;20476;-87
2023/12/16 08:52:21;;;;;;;1.53;1.40;;;19.00;43.00;;;;;;5001880;28;20218;-91
2023/12/16 08:54:46;;;;;;;2.53;2.20;;;19.00;43.00;;;;;;5013429;28;20474;-89
2023/12/16 08:57:13;;;;;;;2.37;2.17;;;19.00;43.00;;;;;;5012700;28;20223;-93
2023/12/16 08:59:38;;;;;;;7.50;2.33;;;19.00;43.00;;;;;;5007896;28;20238;-88
2023/12/16 09:02:05;;;;;;;7.60;2.27;;;19.00;43.00;;;;;;5005920;28;20469;-89
2023/12/16 09:04:31;;;;;;;3.07;2.77;;;19.00;43.10;;;;;;5010019;28;20227;-89
2023/12/16 09:06:56;;;;;;;2.43;2.23;;;19.00;43.00;;;;;;4999982;28;20641;-88
2023/12/16 09:09:22;;;;;;;6.07;3.10;;;19.00;43.10;;;;;;5001673;28;20887;-84
2023/12/16 09:11:48;;;;;;;3.33;3.13;;;19.00;43.10;;;;;;5003094;28;20234;-88
2023/12/16 09:14:13;;;;;;;3.60;3.30;;;19.00;43.10;;;;;;5008977;28;20361;-86
2023/12/16 09:16:39;;;;;;;3.17;2.87;;;19.00;43.10;;;;;;5014093;28;20690;-86
2023/12/16 09:19:07;;;;;;;5.40;3.43;;;19.00;43.20;;;;;;5003942;28;20847;-85
2023/12/16 09:21:33;;;;;;;4.13;3.80;;;19.00;43.20;;;;;;5009762;28;20222;-87
2023/12/16 09:23:58;;;;;;;4.33;4.07;;;19.00;43.20;;;;;;5007897;28;21802;-90
2023/12/16 09:26:24;;;;;;;3.20;2.93;;;19.00;43.20;;;;;;4997804;28;20446;-87
2023/12/16 09:28:50;;;;;;;4.10;3.67;;;19.00;43.20;;;;;;5008392;28;20238;-87
2023/12/16 09:31:18;;;;;;;4.23;3.83;;;19.00;43.20;;;;;;5005334;28;20231;-90
2023/12/16 09:33:43;;;;;;;4.50;4.20;;;19.00;43.20;;;;;;5005959;28;20284;-89
2023/12/16 09:36:13;;;;;;;5.60;3.83;;;19.00;43.30;;;;;;5010780;28;20834;-86
2023/12/16 09:38:39;;;;;;;4.87;4.40;;;19.00;43.20;;;;;;5013222;28;20235;-88
2023/12/16 09:41:15;;;;;;;4.90;4.30;;;19.00;43.30;;;;;;4997242;28;20467;-87
2023/12/16 09:43:43;;;;;;;4.97;4.20;;;19.00;43.30;;;;;;5009298;28;20680;-88
2023/12/16 09:46:09;;;;;;;6.13;5.20;;;19.00;43.20;;;;;;5012134;28;20442;-87
2023/12/16 09:48:35;;;;;;;5.87;4.90;;;19.00;43.20;;;;;;5010441;28;20489;-86
2023/12/16 09:51:01;;;;;;;5.23;4.73;;;19.00;43.30;;;;;;4996670;28;20227;-86
2023/12/16 09:53:27;;;;;;;4.73;4.23;;;19.00;43.30;;;;;;4997672;28;20622;-87
2023/12/16 09:55:52;;;;;;;5.20;4.70;;;19.00;43.20;;;;;;5010070;28;20468;-83
2023/12/16 09:58:19;;;;;;;5.07;4.60;;;19.00;43.20;;;;;;4999491;28;20239;-86
2023/12/16 10:00:49;;;;;;;7.73;4.60;;;19.00;43.30;;;;;;5008239;28;20223;-89
2023/12/16 10:03:16;;;;;;;6.00;4.57;;;19.00;43.30;;;;;;5020470;28;20451;-88
2023/12/16 10:05:45;;;;;;;6.07;4.50;;;19.00;43.30;;;;;;4989284;28;21003;-88
2023/12/16 10:08:10;;;;;;;7.13;5.43;;;19.00;43.30;;;;;;5020277;28;20411;-87
2023/12/16 10:41:21;;;;;;;3.63;3.33;;;19.20;43.30;;;;;;5029264;27;1213037;-70
2023/12/16 10:43:47;;;;;;;3.33;3.13;;;19.20;43.40;;;;;;5055546;28;20305;-69
2023/12/16 10:46:15;;;;;;;3.50;3.20;;;19.20;43.50;;;;;;5059469;28;20955;-69
2023/12/16 10:48:42;;;;;;;3.10;2.90;;;19.20;43.50;;;;;;5068977;28;20802;-70
2023/12/16 10:51:10;;;;;;;4.63;3.20;;;19.20;43.50;;;;;;5065126;28;20898;-69
2023/12/16 10:53:44;;;;;;;3.00;2.80;;;19.20;43.50;;;;;;5064036;27;20548;-69
2023/12/16 10:56:26;;;;;;;3.70;2.93;;;19.20;43.40;;;;;;5049029;28;20499;-70
2023/12/16 10:59:03;;;;;;;3.10;2.90;;;19.30;43.50;;;;;;5052378;28;20444;-70
2023/12/16 11:01:46;;;;;;;3.77;3.07;;;19.30;43.50;;;;;;5043083;28;20475;-69
2023/12/16 11:04:23;;;;;;;3.70;3.40;;;19.30;43.60;;;;;;5048601;28;20771;-70
2023/12/16 11:10:10;;;;;;;4.33;3.50;;;19.30;43.50;;;;;;5057262;28;20839;-70
2023/12/16 11:12:38;;;;;;;7.90;3.63;;;19.30;43.40;;;;;;5058213;28;20466;-70
2023/12/16 11:15:06;;;;;;;4.33;4.00;;;19.30;43.50;;;;;;5054595;28;20225;-70
2023/12/16 11:17:40;;;;;;;6.10;3.80;;;19.30;43.50;;;;;;5055819;28;21005;-70
2023/12/16 11:20:06;;;;;;;3.97;3.67;;;19.30;43.50;;;;;;5055130;28;20782;-70
2023/12/16 11:22:32;;;;;;;4.03;3.73;;;19.30;43.40;;;;;;5054348;28;20459;-70
2023/12/16 11:24:58;;;;;;;3.80;3.40;;;19.30;43.40;;;;;;5056167;28;20520;-70
2023/12/16 11:27:23;;;;;;;3.47;3.17;;;19.30;43.30;;;;;;5055995;28;20226;-71
2023/12/16 11:29:50;;;;;;;4.77;3.87;;;19.30;43.40;;;;;;5065723;28;20217;-70
2023/12/16 11:32:16;;;;;;;4.33;3.70;;;19.30;43.30;;;;;;5054717;28;20689;-70
2023/12/16 11:34:49;;;;;;;4.07;3.77;;;19.30;43.30;;;;;;5048051;28;20429;-73
2023/12/16 11:37:15;;;;;;;3.67;3.37;;;19.30;44.10;;;;;;5044434;28;20578;-71
2023/12/16 11:39:44;;;;;;;5.63;3.90;;;19.30;43.30;;;;;;5036557;28;20458;-71
2023/12/16 11:42:11;;;;;;;3.87;3.50;;;19.30;43.40;;;;;;5060984;27;20271;-70
2023/12/16 11:44:55;;;;;;;4.33;3.60;;;19.30;44.20;;;;;;5068510;27;20481;-71
2023/12/16 11:47:27;;;;;;;4.27;3.70;;;19.30;43.40;;;;;;5077232;27;20435;-70
2023/12/16 11:49:54;;;;;;;10.03;4.37;;;19.30;43.50;;;;;;5081420;27;21177;-71
2023/12/16 11:52:22;;;;;;;4.47;4.00;;;19.30;43.40;;;;;;5079957;27;20436;-71
2023/12/16 11:54:55;;;;;;;3.80;3.40;;;19.30;43.40;;;;;;5084351;27;20844;-70
2023/12/16 11:57:22;;;;;;;4.90;3.57;;;19.30;43.40;;;;;;5073333;27;20756;-70
2023/12/16 11:59:49;;;;;;;4.27;3.40;;;19.30;43.40;;;;;;5086544;27;20454;-70
2023/12/16 12:02:15;;;;;;;11.17;3.80;;;19.30;43.40;;;;;;5063614;27;21087;-71
2023/12/16 12:04:42;;;;;;;4.63;3.70;;;19.30;43.40;;;;;;5064144;28;20739;-70
2023/12/16 12:07:07;;;;;;;4.03;3.00;;;19.30;43.30;;;;;;5077040;27;20224;-70
2023/12/16 12:09:33;;;;;;;3.43;3.13;;;19.30;43.50;;;;;;5078221;27;20420;-70
2023/12/16 12:12:00;;;;;;;3.77;3.47;;;19.30;43.40;;;;;;5082880;27;20224;-70
2023/12/16 12:14:26;;;;;;;4.50;4.10;;;19.30;43.40;;;;;;5086481;28;20220;-70
2023/12/16 12:16:52;;;;;;;8.67;3.33;;;19.30;43.40;;;;;;5072675;28;20431;-70
2023/12/16 12:19:18;;;;;;;4.00;3.60;;;19.30;43.40;;;;;;5086592;27;20353;-70
2023/12/16 12:21:43;;;;;;;4.97;3.53;;;19.30;43.30;;;;;;5084518;28;20583;-70
2023/12/16 12:24:09;;;;;;;3.87;3.57;;;19.30;43.30;;;;;;5085711;28;20290;-70
2023/12/16 12:26:35;;;;;;;5.07;3.50;;;19.30;43.30;;;;;;5083571;27;20613;-70
2023/12/16 12:29:02;;;;;;;5.93;4.57;;;19.30;43.30;;;;;;5087004;28;20235;-70
2023/12/16 14:09:05;;;;;;;14.80;5.70;;;19.90;44.90;;;;;;5063536;28;20488;-70
2023/12/16 14:11:30;;;;;;;9.40;4.23;;;19.90;45.10;;;;;;5075127;28;20488;-70
2023/12/16 14:13:56;;;;;;;14.20;4.60;;;19.90;45.10;;;;;;5075504;28;20468;-70
2023/12/16 14:16:21;;;;;;;7.60;3.70;;;19.90;45.00;;;;;;5074694;28;20332;-70
2023/12/16 14:18:47;;;;;;;4.73;3.23;;;19.90;45.10;;;;;;5075277;28;20680;-69
2023/12/16 14:21:14;;;;;;;8.33;3.53;;;19.90;45.10;;;;;;5071509;28;22819;-70
2023/12/16 14:23:40;;;;;;;4.47;2.83;;;19.80;45.00;;;;;;5076904;28;20678;-70
2023/12/16 14:26:05;;;;;;;5.80;2.80;;;19.90;45.10;;;;;;5058719;28;20428;-70
2023/12/16 14:28:31;;;;;;;4.53;2.60;;;19.80;45.00;;;;;;5072048;28;20223;-70
2023/12/16 14:30:56;;;;;;;7.13;2.90;;;19.80;45.10;;;;;;5073334;28;20477;-70
2023/12/16 14:33:22;;;;;;;4.17;2.47;;;19.80;45.10;;;;;;5070536;28;20640;-70
2023/12/16 14:35:48;;;;;;;3.30;2.60;;;19.80;45.00;;;;;;5073430;28;20581;-70
2023/12/16 14:38:13;;;;;;;10.10;2.67;;;19.80;45.00;;;;;;5070422;28;20216;-70
2023/12/16 14:40:40;;;;;;;2.80;2.37;;;19.80;44.90;;;;;;5059664;28;20537;-70
2023/12/16 14:43:05;;;;;;;3.23;2.93;;;19.80;44.90;;;;;;5069882;28;20241;-70
2023/12/16 14:45:31;;;;;;;4.90;2.47;;;19.80;44.80;;;;;;5058403;28;20485;-70
2023/12/16 14:47:57;;;;;;;2.53;2.30;;;19.80;44.80;;;;;;5054642;28;20236;-70
2023/12/16 14:50:22;;;;;;;2.93;2.73;;;19.80;44.70;;;;;;5071630;28;20251;-70
2023/12/16 14:52:48;;;;;;;4.60;3.10;;;19.80;44.70;;;;;;5071815;28;20232;-69